PASM

St Mary's Airport

Airport
ICAO code
PASM
IATA Code
KSM
Summary
ICAO Region
NAM
ICAO Territory
Location

, Alaska

Serving
St Mary's
Elevation
312 ft
Coordinates
62° 3' 38" N , 163° 18' 7" W
Metar
PASM 200556Z AUTO 23004KT 10SM CLR 13/09 A3027 RMK AO2 SLP258 60000 T01280089 10139 20106 51003

Runways

Designator Length Width Surface Rops
6/24 579 18 GVL No/No
17/35 1830 46 GVL No/No

Airport map

Aerial View

SKYbrary Partners:

Safety knowledge contributed by: